sensor_id;sensor_type;location;lat;lon;timestamp;P1;durP1;ratioP1;P2;durP2;ratioP2
51636;SDS011;37713;53.254;6.460;2024-02-26T00:01:53;17.83;;;9.88;;
51636;SDS011;37713;53.254;6.460;2024-02-26T00:04:19;21.08;;;11.35;;
51636;SDS011;37713;53.254;6.460;2024-02-26T00:06:46;20.42;;;11.00;;
51636;SDS011;37713;53.254;6.460;2024-02-26T00:09:15;18.40;;;10.68;;
51636;SDS011;37713;53.254;6.460;2024-02-26T00:11:41;17.27;;;10.07;;
51636;SDS011;37713;53.254;6.460;2024-02-26T00:14:07;19.40;;;10.27;;
51636;SDS011;37713;53.254;6.460;2024-02-26T00:16:33;18.90;;;10.05;;
51636;SDS011;37713;53.254;6.460;2024-02-26T00:18:59;18.35;;;10.30;;
51636;SDS011;37713;53.254;6.460;2024-02-26T00:21:25;18.42;;;9.70;;
51636;SDS011;37713;53.254;6.460;2024-02-26T00:23:52;17.35;;;9.55;;
51636;SDS011;37713;53.254;6.460;2024-02-26T00:26:18;16.55;;;9.52;;
51636;SDS011;37713;53.254;6.460;2024-02-26T00:28:44;15.32;;;9.63;;
51636;SDS011;37713;53.254;6.460;2024-02-26T00:31:10;17.90;;;9.40;;
51636;SDS011;37713;53.254;6.460;2024-02-26T00:33:36;16.25;;;9.38;;
51636;SDS011;37713;53.254;6.460;2024-02-26T00:36:03;15.82;;;9.52;;
51636;SDS011;37713;53.254;6.460;2024-02-26T00:38:30;15.63;;;8.73;;
51636;SDS011;37713;53.254;6.460;2024-02-26T00:40:56;17.60;;;9.65;;
51636;SDS011;37713;53.254;6.460;2024-02-26T00:43:22;18.00;;;9.20;;
51636;SDS011;37713;53.254;6.460;2024-02-26T00:45:48;16.73;;;8.63;;
51636;SDS011;37713;53.254;6.460;2024-02-26T00:48:14;15.13;;;8.73;;
51636;SDS011;37713;53.254;6.460;2024-02-26T00:50:40;13.63;;;8.13;;
51636;SDS011;37713;53.254;6.460;2024-02-26T00:53:06;14.68;;;7.90;;
51636;SDS011;37713;53.254;6.460;2024-02-26T00:55:33;14.95;;;8.40;;
51636;SDS011;37713;53.254;6.460;2024-02-26T00:57:59;13.25;;;7.80;;
51636;SDS011;37713;53.254;6.460;2024-02-26T01:00:25;12.70;;;7.40;;
51636;SDS011;37713;53.254;6.460;2024-02-26T01:02:51;12.63;;;6.72;;
51636;SDS011;37713;53.254;6.460;2024-02-26T01:05:17;13.82;;;7.20;;
51636;SDS011;37713;53.254;6.460;2024-02-26T01:07:43;12.50;;;6.65;;
51636;SDS011;37713;53.254;6.460;2024-02-26T01:10:09;10.75;;;6.43;;
51636;SDS011;37713;53.254;6.460;2024-02-26T01:12:35;11.95;;;6.80;;
51636;SDS011;37713;53.254;6.460;2024-02-26T01:15:02;12.90;;;6.47;;
51636;SDS011;37713;53.254;6.460;2024-02-26T01:17:28;11.20;;;6.47;;
51636;SDS011;37713;53.254;6.460;2024-02-26T01:19:54;9.90;;;6.28;;
51636;SDS011;37713;53.254;6.460;2024-02-26T01:22:20;10.27;;;6.38;;
51636;SDS011;37713;53.254;6.460;2024-02-26T01:24:47;9.95;;;6.25;;
51636;SDS011;37713;53.254;6.460;2024-02-26T01:27:13;9.88;;;6.22;;
51636;SDS011;37713;53.254;6.460;2024-02-26T01:29:41;11.30;;;6.05;;
51636;SDS011;37713;53.254;6.460;2024-02-26T01:32:07;10.05;;;5.90;;
51636;SDS011;37713;53.254;6.460;2024-02-26T01:34:33;10.50;;;6.00;;
51636;SDS011;37713;53.254;6.460;2024-02-26T01:37:00;9.82;;;6.40;;
51636;SDS011;37713;53.254;6.460;2024-02-26T01:39:26;11.10;;;6.18;;
51636;SDS011;37713;53.254;6.460;2024-02-26T01:41:54;11.23;;;6.72;;
51636;SDS011;37713;53.254;6.460;2024-02-26T01:44:20;10.65;;;6.43;;
51636;SDS011;37713;53.254;6.460;2024-02-26T01:46:46;10.63;;;6.55;;
51636;SDS011;37713;53.254;6.460;2024-02-26T01:49:13;9.65;;;6.28;;
51636;SDS011;37713;53.254;6.460;2024-02-26T01:51:41;11.05;;;6.78;;
51636;SDS011;37713;53.254;6.460;2024-02-26T01:54:08;12.60;;;6.75;;
51636;SDS011;37713;53.254;6.460;2024-02-26T01:56:35;12.48;;;7.38;;
51636;SDS011;37713;53.254;6.460;2024-02-26T01:59:03;12.55;;;6.93;;
51636;SDS011;37713;53.254;6.460;2024-02-26T02:01:31;12.15;;;6.93;;
51636;SDS011;37713;53.254;6.460;2024-02-26T02:03:59;14.23;;;7.30;;
51636;SDS011;37713;53.254;6.460;2024-02-26T02:06:26;12.85;;;7.00;;
51636;SDS011;37713;53.254;6.460;2024-02-26T02:08:56;12.13;;;6.60;;
51636;SDS011;37713;53.254;6.460;2024-02-26T02:11:22;11.15;;;6.43;;
51636;SDS011;37713;53.254;6.460;2024-02-26T02:13:48;11.73;;;6.35;;
51636;SDS011;37713;53.254;6.460;2024-02-26T02:16:14;11.50;;;6.47;;
51636;SDS011;37713;53.254;6.460;2024-02-26T02:18:41;12.45;;;6.00;;
51636;SDS011;37713;53.254;6.460;2024-02-26T02:21:07;10.07;;;5.82;;
51636;SDS011;37713;53.254;6.460;2024-02-26T02:23:33;9.15;;;5.28;;
51636;SDS011;37713;53.254;6.460;2024-02-26T02:26:00;9.32;;;5.47;;
51636;SDS011;37713;53.254;6.460;2024-02-26T02:28:26;9.07;;;5.35;;
51636;SDS011;37713;53.254;6.460;2024-02-26T02:30:53;9.10;;;4.95;;
51636;SDS011;37713;53.254;6.460;2024-02-26T02:33:20;9.20;;;5.25;;
51636;SDS011;37713;53.254;6.460;2024-02-26T02:35:47;10.50;;;5.40;;
51636;SDS011;37713;53.254;6.460;2024-02-26T02:38:15;8.30;;;5.03;;
51636;SDS011;37713;53.254;6.460;2024-02-26T02:40:41;8.43;;;4.90;;
51636;SDS011;37713;53.254;6.460;2024-02-26T02:43:08;10.88;;;5.07;;
51636;SDS011;37713;53.254;6.460;2024-02-26T02:45:33;8.23;;;5.10;;
51636;SDS011;37713;53.254;6.460;2024-02-26T02:48:00;9.07;;;5.28;;
51636;SDS011;37713;53.254;6.460;2024-02-26T02:50:25;9.75;;;5.32;;
51636;SDS011;37713;53.254;6.460;2024-02-26T02:52:51;9.93;;;5.53;;
51636;SDS011;37713;53.254;6.460;2024-02-26T02:55:17;9.73;;;4.72;;
51636;SDS011;37713;53.254;6.460;2024-02-26T02:57:43;9.32;;;5.30;;
51636;SDS011;37713;53.254;6.460;2024-02-26T03:00:10;10.70;;;5.05;;
51636;SDS011;37713;53.254;6.460;2024-02-26T03:02:36;9.82;;;5.18;;
51636;SDS011;37713;53.254;6.460;2024-02-26T03:05:03;9.07;;;4.82;;
51636;SDS011;37713;53.254;6.460;2024-02-26T03:07:29;13.15;;;5.13;;
51636;SDS011;37713;53.254;6.460;2024-02-26T03:09:56;11.05;;;4.68;;
51636;SDS011;37713;53.254;6.460;2024-02-26T03:12:22;7.80;;;4.50;;
51636;SDS011;37713;53.254;6.460;2024-02-26T03:14:48;8.32;;;4.53;;
51636;SDS011;37713;53.254;6.460;2024-02-26T03:17:19;10.82;;;5.30;;
51636;SDS011;37713;53.254;6.460;2024-02-26T03:19:46;11.63;;;4.72;;
51636;SDS011;37713;53.254;6.460;2024-02-26T03:22:15;10.82;;;4.68;;
51636;SDS011;37713;53.254;6.460;2024-02-26T03:24:41;9.02;;;4.97;;
51636;SDS011;37713;53.254;6.460;2024-02-26T03:27:08;11.35;;;5.05;;
51636;SDS011;37713;53.254;6.460;2024-02-26T03:29:35;10.32;;;4.70;;
51636;SDS011;37713;53.254;6.460;2024-02-26T03:32:01;8.30;;;4.72;;
51636;SDS011;37713;53.254;6.460;2024-02-26T03:34:27;9.68;;;5.13;;
51636;SDS011;37713;53.254;6.460;2024-02-26T03:36:53;8.70;;;4.40;;
51636;SDS011;37713;53.254;6.460;2024-02-26T03:39:20;9.48;;;4.65;;
51636;SDS011;37713;53.254;6.460;2024-02-26T03:41:45;9.35;;;4.38;;
51636;SDS011;37713;53.254;6.460;2024-02-26T03:44:12;10.35;;;5.43;;
51636;SDS011;37713;53.254;6.460;2024-02-26T03:46:38;8.32;;;4.40;;
51636;SDS011;37713;53.254;6.460;2024-02-26T03:49:04;9.57;;;4.57;;
51636;SDS011;37713;53.254;6.460;2024-02-26T03:51:31;9.27;;;4.90;;
51636;SDS011;37713;53.254;6.460;2024-02-26T03:53:58;9.52;;;4.90;;
51636;SDS011;37713;53.254;6.460;2024-02-26T03:56:25;12.38;;;4.70;;
51636;SDS011;37713;53.254;6.460;2024-02-26T03:58:52;8.40;;;4.82;;
51636;SDS011;37713;53.254;6.460;2024-02-26T04:01:19;9.85;;;4.30;;
51636;SDS011;37713;53.254;6.460;2024-02-26T04:03:45;9.57;;;4.70;;
51636;SDS011;37713;53.254;6.460;2024-02-26T04:06:11;11.40;;;3.95;;
51636;SDS011;37713;53.254;6.460;2024-02-26T04:08:41;8.68;;;4.88;;
51636;SDS011;37713;53.254;6.460;2024-02-26T04:11:07;8.10;;;3.80;;
51636;SDS011;37713;53.254;6.460;2024-02-26T04:13:33;7.10;;;3.90;;
51636;SDS011;37713;53.254;6.460;2024-02-26T04:15:59;7.93;;;4.60;;
51636;SDS011;37713;53.254;6.460;2024-02-26T04:18:28;9.93;;;5.07;;
51636;SDS011;37713;53.254;6.460;2024-02-26T04:20:54;11.50;;;4.35;;
51636;SDS011;37713;53.254;6.460;2024-02-26T04:23:22;9.65;;;4.53;;
51636;SDS011;37713;53.254;6.460;2024-02-26T04:25:48;10.05;;;5.10;;
51636;SDS011;37713;53.254;6.460;2024-02-26T04:28:14;10.23;;;5.03;;
51636;SDS011;37713;53.254;6.460;2024-02-26T04:30:41;8.98;;;4.82;;
51636;SDS011;37713;53.254;6.460;2024-02-26T04:33:07;9.73;;;4.80;;
51636;SDS011;37713;53.254;6.460;2024-02-26T04:35:33;9.10;;;5.22;;
51636;SDS011;37713;53.254;6.460;2024-02-26T04:38:00;8.05;;;4.53;;
51636;SDS011;37713;53.254;6.460;2024-02-26T04:40:26;9.13;;;4.88;;
51636;SDS011;37713;53.254;6.460;2024-02-26T04:42:52;10.73;;;4.88;;
51636;SDS011;37713;53.254;6.460;2024-02-26T04:45:19;9.40;;;4.90;;
51636;SDS011;37713;53.254;6.460;2024-02-26T04:47:45;10.98;;;4.80;;
51636;SDS011;37713;53.254;6.460;2024-02-26T04:50:12;9.57;;;4.70;;
51636;SDS011;37713;53.254;6.460;2024-02-26T04:52:38;9.85;;;5.07;;
51636;SDS011;37713;53.254;6.460;2024-02-26T04:55:04;9.85;;;4.93;;
51636;SDS011;37713;53.254;6.460;2024-02-26T04:57:30;9.32;;;5.07;;
51636;SDS011;37713;53.254;6.460;2024-02-26T04:59:56;9.48;;;5.22;;
51636;SDS011;37713;53.254;6.460;2024-02-26T05:02:22;9.88;;;4.80;;
51636;SDS011;37713;53.254;6.460;2024-02-26T05:04:48;8.27;;;4.57;;
51636;SDS011;37713;53.254;6.460;2024-02-26T05:07:14;12.93;;;4.95;;
51636;SDS011;37713;53.254;6.460;2024-02-26T05:09:42;7.85;;;4.53;;
51636;SDS011;37713;53.254;6.460;2024-02-26T05:12:09;7.78;;;4.10;;
51636;SDS011;37713;53.254;6.460;2024-02-26T05:14:35;8.55;;;4.07;;
51636;SDS011;37713;53.254;6.460;2024-02-26T05:17:01;9.05;;;4.07;;
51636;SDS011;37713;53.254;6.460;2024-02-26T05:19:27;9.25;;;4.65;;
51636;SDS011;37713;53.254;6.460;2024-02-26T05:21:53;14.75;;;3.90;;
51636;SDS011;37713;53.254;6.460;2024-02-26T05:24:18;6.13;;;3.42;;
51636;SDS011;37713;53.254;6.460;2024-02-26T05:26:47;7.68;;;4.15;;
51636;SDS011;37713;53.254;6.460;2024-02-26T05:29:14;9.05;;;4.50;;
51636;SDS011;37713;53.254;6.460;2024-02-26T05:31:42;6.63;;;3.50;;
51636;SDS011;37713;53.254;6.460;2024-02-26T05:34:08;9.38;;;3.75;;
51636;SDS011;37713;53.254;6.460;2024-02-26T05:36:34;6.13;;;3.50;;
51636;SDS011;37713;53.254;6.460;2024-02-26T05:39:00;6.93;;;3.38;;
51636;SDS011;37713;53.254;6.460;2024-02-26T05:41:26;4.97;;;3.10;;
51636;SDS011;37713;53.254;6.460;2024-02-26T05:43:53;8.00;;;3.78;;
51636;SDS011;37713;53.254;6.460;2024-02-26T05:46:19;7.00;;;3.38;;
51636;SDS011;37713;53.254;6.460;2024-02-26T05:48:50;5.90;;;3.30;;
51636;SDS011;37713;53.254;6.460;2024-02-26T05:51:17;6.85;;;3.40;;
51636;SDS011;37713;53.254;6.460;2024-02-26T05:53:43;7.05;;;3.40;;
51636;SDS011;37713;53.254;6.460;2024-02-26T05:56:09;6.80;;;3.22;;
51636;SDS011;37713;53.254;6.460;2024-02-26T05:58:35;6.60;;;3.25;;
51636;SDS011;37713;53.254;6.460;2024-02-26T06:01:01;16.42;;;8.68;;
51636;SDS011;37713;53.254;6.460;2024-02-26T06:03:27;22.30;;;11.43;;
51636;SDS011;37713;53.254;6.460;2024-02-26T06:05:54;10.93;;;5.18;;
51636;SDS011;37713;53.254;6.460;2024-02-26T06:08:20;6.22;;;3.83;;
51636;SDS011;37713;53.254;6.460;2024-02-26T06:10:47;6.28;;;3.50;;
51636;SDS011;37713;53.254;6.460;2024-02-26T06:13:13;6.93;;;3.35;;
51636;SDS011;37713;53.254;6.460;2024-02-26T06:15:39;5.70;;;3.10;;
51636;SDS011;37713;53.254;6.460;2024-02-26T06:18:05;8.00;;;3.17;;
51636;SDS011;37713;53.254;6.460;2024-02-26T06:20:31;6.20;;;3.15;;
51636;SDS011;37713;53.254;6.460;2024-02-26T06:22:57;6.15;;;3.35;;
51636;SDS011;37713;53.254;6.460;2024-02-26T06:25:23;5.72;;;2.97;;
51636;SDS011;37713;53.254;6.460;2024-02-26T06:27:50;5.78;;;3.03;;
51636;SDS011;37713;53.254;6.460;2024-02-26T06:30:16;5.50;;;3.10;;
51636;SDS011;37713;53.254;6.460;2024-02-26T06:32:43;7.50;;;3.75;;
51636;SDS011;37713;53.254;6.460;2024-02-26T06:35:08;12.98;;;7.10;;
51636;SDS011;37713;53.254;6.460;2024-02-26T06:37:36;8.30;;;3.53;;
51636;SDS011;37713;53.254;6.460;2024-02-26T06:40:02;5.10;;;2.95;;
51636;SDS011;37713;53.254;6.460;2024-02-26T06:42:29;5.80;;;3.20;;
51636;SDS011;37713;53.254;6.460;2024-02-26T06:44:55;6.93;;;3.33;;
51636;SDS011;37713;53.254;6.460;2024-02-26T06:47:22;8.07;;;3.63;;
51636;SDS011;37713;53.254;6.460;2024-02-26T06:49:48;6.05;;;2.90;;
51636;SDS011;37713;53.254;6.460;2024-02-26T06:52:13;7.20;;;2.72;;
51636;SDS011;37713;53.254;6.460;2024-02-26T06:54:39;5.97;;;2.78;;
51636;SDS011;37713;53.254;6.460;2024-02-26T06:57:05;7.93;;;3.13;;
51636;SDS011;37713;53.254;6.460;2024-02-26T06:59:31;7.13;;;3.03;;
51636;SDS011;37713;53.254;6.460;2024-02-26T07:01:57;5.22;;;2.40;;
51636;SDS011;37713;53.254;6.460;2024-02-26T07:04:23;5.95;;;2.90;;
51636;SDS011;37713;53.254;6.460;2024-02-26T07:06:49;6.47;;;2.50;;
51636;SDS011;37713;53.254;6.460;2024-02-26T07:09:15;6.60;;;2.58;;
51636;SDS011;37713;53.254;6.460;2024-02-26T07:11:42;5.13;;;2.60;;
51636;SDS011;37713;53.254;6.460;2024-02-26T07:14:09;4.65;;;2.55;;
51636;SDS011;37713;53.254;6.460;2024-02-26T07:16:35;6.28;;;3.00;;
51636;SDS011;37713;53.254;6.460;2024-02-26T07:19:02;5.35;;;2.80;;
51636;SDS011;37713;53.254;6.460;2024-02-26T07:21:29;6.03;;;2.50;;
51636;SDS011;37713;53.254;6.460;2024-02-26T07:23:55;5.70;;;2.65;;
51636;SDS011;37713;53.254;6.460;2024-02-26T07:26:21;7.63;;;2.78;;
51636;SDS011;37713;53.254;6.460;2024-02-26T07:28:49;7.20;;;2.63;;
51636;SDS011;37713;53.254;6.460;2024-02-26T07:31:15;6.82;;;3.35;;
51636;SDS011;37713;53.254;6.460;2024-02-26T07:33:43;5.85;;;2.88;;
51636;SDS011;37713;53.254;6.460;2024-02-26T07:36:08;6.68;;;3.22;;
51636;SDS011;37713;53.254;6.460;2024-02-26T07:38:35;8.52;;;3.05;;
51636;SDS011;37713;53.254;6.460;2024-02-26T07:41:04;7.22;;;3.00;;
51636;SDS011;37713;53.254;6.460;2024-02-26T07:43:30;7.18;;;2.95;;
51636;SDS011;37713;53.254;6.460;2024-02-26T07:45:57;5.80;;;2.85;;
51636;SDS011;37713;53.254;6.460;2024-02-26T07:48:23;7.78;;;2.72;;
51636;SDS011;37713;53.254;6.460;2024-02-26T07:50:49;6.07;;;2.80;;
51636;SDS011;37713;53.254;6.460;2024-02-26T07:53:15;5.88;;;2.60;;
51636;SDS011;37713;53.254;6.460;2024-02-26T07:55:41;6.10;;;2.70;;
51636;SDS011;37713;53.254;6.460;2024-02-26T07:58:07;17.52;;;8.15;;
51636;SDS011;37713;53.254;6.460;2024-02-26T08:00:33;5.43;;;2.80;;
51636;SDS011;37713;53.254;6.460;2024-02-26T08:02:59;5.45;;;2.45;;
51636;SDS011;37713;53.254;6.460;2024-02-26T08:05:25;4.93;;;2.45;;
51636;SDS011;37713;53.254;6.460;2024-02-26T08:07:51;5.00;;;2.40;;
51636;SDS011;37713;53.254;6.460;2024-02-26T08:10:17;4.75;;;2.22;;
51636;SDS011;37713;53.254;6.460;2024-02-26T08:12:43;5.90;;;2.33;;
51636;SDS011;37713;53.254;6.460;2024-02-26T08:15:10;5.55;;;2.20;;
51636;SDS011;37713;53.254;6.460;2024-02-26T08:17:36;4.60;;;2.35;;
51636;SDS011;37713;53.254;6.460;2024-02-26T08:20:03;6.60;;;3.00;;
51636;SDS011;37713;53.254;6.460;2024-02-26T08:22:30;4.47;;;2.47;;
51636;SDS011;37713;53.254;6.460;2024-02-26T08:24:56;4.65;;;2.08;;
51636;SDS011;37713;53.254;6.460;2024-02-26T08:27:22;5.00;;;2.33;;
51636;SDS011;37713;53.254;6.460;2024-02-26T08:29:48;4.53;;;2.58;;
51636;SDS011;37713;53.254;6.460;2024-02-26T08:32:15;21.67;;;10.20;;
51636;SDS011;37713;53.254;6.460;2024-02-26T08:34:41;4.65;;;2.40;;
51636;SDS011;37713;53.254;6.460;2024-02-26T08:37:07;3.70;;;2.10;;
51636;SDS011;37713;53.254;6.460;2024-02-26T08:39:33;6.38;;;2.20;;
51636;SDS011;37713;53.254;6.460;2024-02-26T08:41:59;4.80;;;1.83;;
51636;SDS011;37713;53.254;6.460;2024-02-26T08:44:25;4.63;;;2.20;;
51636;SDS011;37713;53.254;6.460;2024-02-26T08:46:51;6.32;;;2.10;;
51636;SDS011;37713;53.254;6.460;2024-02-26T08:49:17;6.10;;;2.03;;
51636;SDS011;37713;53.254;6.460;2024-02-26T08:51:43;4.07;;;1.80;;
51636;SDS011;37713;53.254;6.460;2024-02-26T08:54:10;4.75;;;1.98;;
51636;SDS011;37713;53.254;6.460;2024-02-26T08:56:36;4.03;;;2.08;;
51636;SDS011;37713;53.254;6.460;2024-02-26T08:59:02;8.07;;;2.30;;
51636;SDS011;37713;53.254;6.460;2024-02-26T09:01:32;6.13;;;2.00;;
51636;SDS011;37713;53.254;6.460;2024-02-26T09:03:58;6.15;;;2.35;;
51636;SDS011;37713;53.254;6.460;2024-02-26T09:06:24;7.90;;;2.40;;
51636;SDS011;37713;53.254;6.460;2024-02-26T09:08:50;5.45;;;2.40;;
51636;SDS011;37713;53.254;6.460;2024-02-26T09:11:17;6.70;;;2.63;;
51636;SDS011;37713;53.254;6.460;2024-02-26T09:13:43;5.43;;;2.10;;
51636;SDS011;37713;53.254;6.460;2024-02-26T09:16:09;5.82;;;2.45;;
51636;SDS011;37713;53.254;6.460;2024-02-26T09:18:36;5.00;;;2.22;;
51636;SDS011;37713;53.254;6.460;2024-02-26T09:21:06;6.03;;;2.40;;
51636;SDS011;37713;53.254;6.460;2024-02-26T09:23:32;5.25;;;2.38;;
51636;SDS011;37713;53.254;6.460;2024-02-26T09:26:00;6.28;;;2.60;;
51636;SDS011;37713;53.254;6.460;2024-02-26T09:28:26;7.03;;;2.53;;
51636;SDS011;37713;53.254;6.460;2024-02-26T09:30:51;8.80;;;2.75;;
51636;SDS011;37713;53.254;6.460;2024-02-26T09:33:17;10.90;;;2.88;;
51636;SDS011;37713;53.254;6.460;2024-02-26T09:35:43;5.43;;;2.30;;
51636;SDS011;37713;53.254;6.460;2024-02-26T09:38:09;7.63;;;2.53;;
51636;SDS011;37713;53.254;6.460;2024-02-26T09:40:35;5.57;;;2.50;;
51636;SDS011;37713;53.254;6.460;2024-02-26T09:43:02;9.43;;;2.60;;
51636;SDS011;37713;53.254;6.460;2024-02-26T09:45:30;5.90;;;2.63;;
51636;SDS011;37713;53.254;6.460;2024-02-26T09:47:57;6.43;;;3.10;;
51636;SDS011;37713;53.254;6.460;2024-02-26T09:50:24;7.30;;;3.30;;
51636;SDS011;37713;53.254;6.460;2024-02-26T09:52:49;9.68;;;3.72;;
51636;SDS011;37713;53.254;6.460;2024-02-26T09:55:17;12.20;;;5.60;;
51636;SDS011;37713;53.254;6.460;2024-02-26T09:57:47;8.65;;;3.60;;
51636;SDS011;37713;53.254;6.460;2024-02-26T10:00:20;6.03;;;2.75;;
51636;SDS011;37713;53.254;6.460;2024-02-26T10:02:47;6.45;;;2.70;;
51636;SDS011;37713;53.254;6.460;2024-02-26T10:05:18;6.82;;;2.13;;
51636;SDS011;37713;53.254;6.460;2024-02-26T10:07:44;6.75;;;2.15;;
51636;SDS011;37713;53.254;6.460;2024-02-26T10:10:11;5.18;;;2.05;;
51636;SDS011;37713;53.254;6.460;2024-02-26T10:12:38;7.20;;;2.30;;
51636;SDS011;37713;53.254;6.460;2024-02-26T10:15:04;8.70;;;2.55;;
51636;SDS011;37713;53.254;6.460;2024-02-26T10:17:31;6.95;;;2.45;;
51636;SDS011;37713;53.254;6.460;2024-02-26T10:20:13;7.03;;;2.20;;
51636;SDS011;37713;53.254;6.460;2024-02-26T10:22:41;4.95;;;1.90;;
51636;SDS011;37713;53.254;6.460;2024-02-26T10:25:08;7.72;;;2.83;;
51636;SDS011;37713;53.254;6.460;2024-02-26T10:27:34;6.57;;;1.95;;
51636;SDS011;37713;53.254;6.460;2024-02-26T10:30:03;5.05;;;1.92;;
51636;SDS011;37713;53.254;6.460;2024-02-26T10:32:30;5.55;;;1.60;;
51636;SDS011;37713;53.254;6.460;2024-02-26T10:34:57;7.57;;;2.25;;
51636;SDS011;37713;53.254;6.460;2024-02-26T10:37:23;9.32;;;1.92;;
51636;SDS011;37713;53.254;6.460;2024-02-26T10:39:50;5.95;;;2.10;;
51636;SDS011;37713;53.254;6.460;2024-02-26T10:42:16;4.32;;;2.20;;
51636;SDS011;37713;53.254;6.460;2024-02-26T10:44:44;5.47;;;2.20;;
51636;SDS011;37713;53.254;6.460;2024-02-26T10:47:11;5.85;;;2.70;;
51636;SDS011;37713;53.254;6.460;2024-02-26T10:49:37;5.95;;;1.95;;
51636;SDS011;37713;53.254;6.460;2024-02-26T10:52:03;7.95;;;2.70;;
51636;SDS011;37713;53.254;6.460;2024-02-26T10:54:31;6.70;;;2.17;;
51636;SDS011;37713;53.254;6.460;2024-02-26T10:56:59;6.25;;;2.28;;
51636;SDS011;37713;53.254;6.460;2024-02-26T10:59:26;6.55;;;3.38;;
51636;SDS011;37713;53.254;6.460;2024-02-26T11:01:52;6.97;;;3.10;;
51636;SDS011;37713;53.254;6.460;2024-02-26T11:04:20;8.07;;;2.92;;
51636;SDS011;37713;53.254;6.460;2024-02-26T11:06:47;8.63;;;3.35;;
51636;SDS011;37713;53.254;6.460;2024-02-26T11:09:15;8.63;;;3.50;;
51636;SDS011;37713;53.254;6.460;2024-02-26T11:11:42;5.72;;;3.03;;
51636;SDS011;37713;53.254;6.460;2024-02-26T11:14:09;6.80;;;2.97;;
51636;SDS011;37713;53.254;6.460;2024-02-26T11:16:36;6.22;;;3.30;;
51636;SDS011;37713;53.254;6.460;2024-02-26T11:19:04;7.47;;;3.63;;
51636;SDS011;37713;53.254;6.460;2024-02-26T11:21:34;8.93;;;4.03;;
51636;SDS011;37713;53.254;6.460;2024-02-26T11:24:07;6.78;;;3.50;;
51636;SDS011;37713;53.254;6.460;2024-02-26T11:26:38;11.07;;;4.03;;
51636;SDS011;37713;53.254;6.460;2024-02-26T11:29:13;9.35;;;3.90;;
51636;SDS011;37713;53.254;6.460;2024-02-26T11:31:42;7.75;;;3.60;;
51636;SDS011;37713;53.254;6.460;2024-02-26T11:34:08;9.38;;;4.40;;
51636;SDS011;37713;53.254;6.460;2024-02-26T11:36:36;10.15;;;4.38;;
51636;SDS011;37713;53.254;6.460;2024-02-26T11:39:03;9.57;;;4.80;;
51636;SDS011;37713;53.254;6.460;2024-02-26T11:41:30;8.43;;;4.03;;
51636;SDS011;37713;53.254;6.460;2024-02-26T11:44:03;7.97;;;4.65;;
51636;SDS011;37713;53.254;6.460;2024-02-26T11:46:32;9.13;;;4.47;;
51636;SDS011;37713;53.254;6.460;2024-02-26T11:49:30;10.82;;;4.45;;
51636;SDS011;37713;53.254;6.460;2024-02-26T11:51:51;8.63;;;4.40;;
51636;SDS011;37713;53.254;6.460;2024-02-26T12:00:14;12.00;;;3.88;;
51636;SDS011;37713;53.254;6.460;2024-02-26T12:02:51;9.00;;;3.60;;
51636;SDS011;37713;53.254;6.460;2024-02-26T12:05:23;9.80;;;3.90;;
51636;SDS011;37713;53.254;6.460;2024-02-26T12:07:52;7.68;;;4.35;;
51636;SDS011;37713;53.254;6.460;2024-02-26T12:10:26;7.00;;;3.80;;
51636;SDS011;37713;53.254;6.460;2024-02-26T12:13:05;7.70;;;4.00;;
51636;SDS011;37713;53.254;6.460;2024-02-26T12:15:33;7.72;;;4.15;;
51636;SDS011;37713;53.254;6.460;2024-02-26T12:18:03;7.60;;;4.20;;
51636;SDS011;37713;53.254;6.460;2024-02-26T12:20:30;9.50;;;4.63;;
51636;SDS011;37713;53.254;6.460;2024-02-26T12:22:57;27.65;;;11.75;;
51636;SDS011;37713;53.254;6.460;2024-02-26T12:25:25;12.95;;;6.35;;
51636;SDS011;37713;53.254;6.460;2024-02-26T12:27:54;9.98;;;5.07;;
51636;SDS011;37713;53.254;6.460;2024-02-26T12:30:21;10.18;;;4.85;;
51636;SDS011;37713;53.254;6.460;2024-02-26T12:32:51;11.60;;;5.40;;
51636;SDS011;37713;53.254;6.460;2024-02-26T12:35:17;8.82;;;4.50;;
51636;SDS011;37713;53.254;6.460;2024-02-26T12:37:43;8.07;;;4.30;;
51636;SDS011;37713;53.254;6.460;2024-02-26T12:40:10;9.32;;;3.97;;
51636;SDS011;37713;53.254;6.460;2024-02-26T12:42:36;10.60;;;4.85;;
51636;SDS011;37713;53.254;6.460;2024-02-26T12:45:07;9.90;;;5.35;;
51636;SDS011;37713;53.254;6.460;2024-02-26T12:47:37;11.27;;;5.47;;
51636;SDS011;37713;53.254;6.460;2024-02-26T12:50:07;9.05;;;5.15;;
51636;SDS011;37713;53.254;6.460;2024-02-26T12:52:43;8.95;;;4.40;;
51636;SDS011;37713;53.254;6.460;2024-02-26T12:55:11;8.40;;;4.50;;
51636;SDS011;37713;53.254;6.460;2024-02-26T12:57:40;8.90;;;4.75;;
51636;SDS011;37713;53.254;6.460;2024-02-26T13:00:14;12.15;;;6.00;;
51636;SDS011;37713;53.254;6.460;2024-02-26T13:02:43;10.60;;;5.63;;
51636;SDS011;37713;53.254;6.460;2024-02-26T13:05:10;13.13;;;6.00;;
51636;SDS011;37713;53.254;6.460;2024-02-26T13:07:45;9.77;;;5.60;;
51636;SDS011;37713;53.254;6.460;2024-02-26T13:10:14;9.90;;;5.30;;
51636;SDS011;37713;53.254;6.460;2024-02-26T13:12:43;8.73;;;5.07;;
51636;SDS011;37713;53.254;6.460;2024-02-26T13:15:13;8.77;;;4.68;;
51636;SDS011;37713;53.254;6.460;2024-02-26T13:17:41;12.52;;;5.03;;
51636;SDS011;37713;53.254;6.460;2024-02-26T13:20:08;12.02;;;4.60;;
51636;SDS011;37713;53.254;6.460;2024-02-26T13:25:03;9.07;;;4.70;;
51636;SDS011;37713;53.254;6.460;2024-02-26T13:27:32;8.90;;;4.88;;
51636;SDS011;37713;53.254;6.460;2024-02-26T13:30:11;9.90;;;4.95;;
51636;SDS011;37713;53.254;6.460;2024-02-26T13:32:39;8.77;;;4.82;;
51636;SDS011;37713;53.254;6.460;2024-02-26T13:35:09;9.02;;;4.97;;
51636;SDS011;37713;53.254;6.460;2024-02-26T13:37:38;9.57;;;5.20;;
51636;SDS011;37713;53.254;6.460;2024-02-26T13:40:11;11.05;;;5.40;;
51636;SDS011;37713;53.254;6.460;2024-02-26T13:42:37;9.00;;;5.22;;
51636;SDS011;37713;53.254;6.460;2024-02-26T13:45:04;13.13;;;5.38;;
51636;SDS011;37713;53.254;6.460;2024-02-26T13:50:00;11.00;;;5.00;;
51636;SDS011;37713;53.254;6.460;2024-02-26T13:52:26;8.65;;;4.72;;
51636;SDS011;37713;53.254;6.460;2024-02-26T13:54:52;10.23;;;5.18;;
51636;SDS011;37713;53.254;6.460;2024-02-26T13:57:19;9.57;;;4.75;;
51636;SDS011;37713;53.254;6.460;2024-02-26T13:59:45;9.82;;;5.43;;
51636;SDS011;37713;53.254;6.460;2024-02-26T14:02:11;10.13;;;6.03;;
51636;SDS011;37713;53.254;6.460;2024-02-26T14:04:37;10.85;;;5.88;;
51636;SDS011;37713;53.254;6.460;2024-02-26T14:07:03;11.07;;;5.50;;
51636;SDS011;37713;53.254;6.460;2024-02-26T14:09:30;10.20;;;6.13;;
51636;SDS011;37713;53.254;6.460;2024-02-26T14:11:57;12.93;;;6.07;;
51636;SDS011;37713;53.254;6.460;2024-02-26T14:14:24;9.73;;;5.22;;
51636;SDS011;37713;53.254;6.460;2024-02-26T14:16:51;9.30;;;5.63;;
51636;SDS011;37713;53.254;6.460;2024-02-26T14:19:17;9.77;;;5.63;;
51636;SDS011;37713;53.254;6.460;2024-02-26T14:21:43;10.40;;;5.05;;
51636;SDS011;37713;53.254;6.460;2024-02-26T14:24:09;8.48;;;4.85;;
51636;SDS011;37713;53.254;6.460;2024-02-26T14:26:35;10.18;;;5.28;;
51636;SDS011;37713;53.254;6.460;2024-02-26T14:29:01;9.43;;;4.80;;
51636;SDS011;37713;53.254;6.460;2024-02-26T14:31:27;10.02;;;4.88;;
51636;SDS011;37713;53.254;6.460;2024-02-26T14:33:53;10.20;;;5.13;;
51636;SDS011;37713;53.254;6.460;2024-02-26T14:36:20;10.57;;;5.25;;
51636;SDS011;37713;53.254;6.460;2024-02-26T14:38:46;9.10;;;4.90;;
51636;SDS011;37713;53.254;6.460;2024-02-26T14:41:13;10.35;;;5.05;;
51636;SDS011;37713;53.254;6.460;2024-02-26T14:43:39;10.13;;;5.53;;
51636;SDS011;37713;53.254;6.460;2024-02-26T14:46:05;11.65;;;5.30;;
51636;SDS011;37713;53.254;6.460;2024-02-26T14:48:31;8.95;;;5.18;;
51636;SDS011;37713;53.254;6.460;2024-02-26T14:50:57;9.85;;;5.78;;
51636;SDS011;37713;53.254;6.460;2024-02-26T14:53:25;11.65;;;6.30;;